createdAt,value
2022-08-17T00:00:15.736Z,75.90
2022-08-17T00:03:02.815Z,76.10
2022-08-17T00:05:33.170Z,75.50
2022-08-17T00:08:02.434Z,75.40
2022-08-17T00:10:31.176Z,75.90
2022-08-17T00:13:00.785Z,75.70
2022-08-17T00:15:28.726Z,75.90
2022-08-17T00:17:56.588Z,76.40
2022-08-17T00:20:30.665Z,76.90
2022-08-17T00:23:10.364Z,77.20
2022-08-17T00:25:38.599Z,77.70
2022-08-17T00:28:08.011Z,77.80
2022-08-17T00:30:51.223Z,77.10
2022-08-17T00:33:24.156Z,77.40
2022-08-17T00:35:52.540Z,77.30
2022-08-17T00:38:22.081Z,77.60
2022-08-17T00:40:52.143Z,77.70
2022-08-17T00:43:31.939Z,78.30
2022-08-17T00:46:01.534Z,79.70
2022-08-17T00:48:30.897Z,79.40
2022-08-17T00:51:08.073Z,79.50
2022-08-17T00:53:41.772Z,79.50
2022-08-17T00:56:13.787Z,79.40
2022-08-17T00:58:42.254Z,79.60
2022-08-17T01:01:13.007Z,80.30
2022-08-17T01:03:51.499Z,80.90
2022-08-17T01:06:19.963Z,80.60
2022-08-17T01:08:51.895Z,80.60
2022-08-17T01:11:25.750Z,80.60
2022-08-17T01:13:53.662Z,82.40
2022-08-17T01:16:24.323Z,82.30
2022-08-17T01:18:55.174Z,81.80
2022-08-17T01:21:29.777Z,82.30
2022-08-17T01:23:59.149Z,82.10
2022-08-17T01:26:27.440Z,82.60
2022-08-17T01:28:56.014Z,82.80
2022-08-17T01:31:25.974Z,83.80
2022-08-17T01:33:53.973Z,83.00
2022-08-17T01:36:22.013Z,82.60
2022-08-17T01:38:49.895Z,82.70
2022-08-17T01:41:22.744Z,84.20
2022-08-17T01:43:57.769Z,85.40
2022-08-17T01:46:28.279Z,85.70
2022-08-17T01:48:57.673Z,85.70
2022-08-17T01:51:30.165Z,85.50
2022-08-17T01:54:01.109Z,85.30
2022-08-17T01:56:33.290Z,86.30
2022-08-17T01:59:01.355Z,86.20
2022-08-17T02:01:31.074Z,87.50
2022-08-17T02:04:01.298Z,88.40
2022-08-17T02:06:31.620Z,88.90
2022-08-17T02:09:16.643Z,89.00
2022-08-17T02:11:47.229Z,89.80
2022-08-17T02:14:15.421Z,89.90
2022-08-17T02:16:43.911Z,90.20
2022-08-17T02:19:15.501Z,89.70
2022-08-17T02:21:45.160Z,90.00
2022-08-17T02:24:16.683Z,90.80
2022-08-17T02:26:46.811Z,90.60
2022-08-17T02:29:15.727Z,91.20
2022-08-17T02:31:44.339Z,91.20
2022-08-17T02:34:12.726Z,91.30
2022-08-17T02:36:40.556Z,91.90
2022-08-17T02:39:10.954Z,92.40
2022-08-17T02:41:39.513Z,92.60
2022-08-17T02:44:09.012Z,93.80
2022-08-17T02:46:36.939Z,94.60
2022-08-17T02:49:05.005Z,94.80
2022-08-17T02:51:33.295Z,94.00
2022-08-17T02:54:39.309Z,93.30
2022-08-17T02:56:49.023Z,93.00
2022-08-17T02:59:18.251Z,92.50
2022-08-17T03:01:46.163Z,93.40
2022-08-17T03:04:14.132Z,94.00
2022-08-17T03:06:41.938Z,94.70
2022-08-17T03:09:09.941Z,95.10
2022-08-17T03:11:37.800Z,95.40
2022-08-17T03:14:05.656Z,94.80
2022-08-17T03:16:34.857Z,94.20
2022-08-17T03:19:04.273Z,95.30
2022-08-17T03:21:32.156Z,95.90
2022-08-17T03:24:00.038Z,96.50
2022-08-17T03:26:29.760Z,97.40
2022-08-17T03:28:58.480Z,96.90
2022-08-17T03:31:26.453Z,97.10
2022-08-17T03:33:56.201Z,98.40
2022-08-17T03:36:24.010Z,98.60
2022-08-17T03:38:51.825Z,98.00
2022-08-17T03:41:20.017Z,97.60
2022-08-17T03:43:47.877Z,97.70
2022-08-17T03:46:35.233Z,98.50
2022-08-17T03:49:23.970Z,98.10
2022-08-17T03:52:09.947Z,97.70
2022-08-17T03:54:55.470Z,96.10
2022-08-17T03:57:23.437Z,95.00
2022-08-17T03:59:51.539Z,95.00
2022-08-17T04:02:23.164Z,96.40
2022-08-17T04:04:52.756Z,94.40
2022-08-17T04:07:21.735Z,94.90
2022-08-17T04:09:50.075Z,94.40
2022-08-17T04:12:19.744Z,95.20
2022-08-17T04:14:53.209Z,95.20
2022-08-17T04:17:24.506Z,95.40
2022-08-17T04:19:55.135Z,95.70
2022-08-17T04:22:31.882Z,95.20
2022-08-17T04:25:03.314Z,95.20
2022-08-17T04:27:31.201Z,94.40
2022-08-17T04:29:59.426Z,93.80
2022-08-17T04:33:03.939Z,93.80
2022-08-17T04:35:21.037Z,93.80
2022-08-17T04:37:48.985Z,94.00
2022-08-17T04:40:34.653Z,94.10
2022-08-17T04:43:03.816Z,94.30
2022-08-17T04:45:32.682Z,93.90
2022-08-17T04:48:01.319Z,93.30
2022-08-17T04:50:30.541Z,92.80
2022-08-17T04:52:58.694Z,93.10
2022-08-17T04:55:26.766Z,91.50
2022-08-17T04:57:54.781Z,92.90
2022-08-17T05:00:25.640Z,93.10
2022-08-17T05:02:56.119Z,91.80
2022-08-17T05:05:26.152Z,91.60
2022-08-17T05:07:57.052Z,93.10
2022-08-17T05:10:27.425Z,93.40
2022-08-17T05:12:59.635Z,92.40
2022-08-17T05:15:27.871Z,92.90
2022-08-17T05:17:55.717Z,93.40
2022-08-17T05:20:24.559Z,94.00
2022-08-17T05:22:54.016Z,93.40
2022-08-17T05:25:25.917Z,94.30
2022-08-17T05:27:55.118Z,94.20
2022-08-17T05:30:24.777Z,94.80
2022-08-17T05:32:54.797Z,95.60
2022-08-17T05:35:23.915Z,96.50
2022-08-17T05:37:51.777Z,96.10
2022-08-17T05:40:20.767Z,96.80
2022-08-17T05:42:51.201Z,97.60
2022-08-17T05:45:32.136Z,99.10
2022-08-17T05:48:11.250Z,98.40
2022-08-17T05:50:50.059Z,97.90
2022-08-17T05:53:27.896Z,97.00
2022-08-17T05:56:11.506Z,96.10
2022-08-17T05:59:06.055Z,95.10
2022-08-17T06:01:40.618Z,94.70
2022-08-17T06:04:17.388Z,93.70
2022-08-17T06:06:52.659Z,93.70
2022-08-17T06:09:33.988Z,94.10
2022-08-17T06:12:19.031Z,93.10
2022-08-17T06:15:10.621Z,93.80
2022-08-17T06:17:39.146Z,94.40
2022-08-17T06:20:11.446Z,94.10
2022-08-17T06:22:45.448Z,95.00
2022-08-17T06:25:18.525Z,94.70
2022-08-17T06:27:53.554Z,95.20
2022-08-17T06:30:25.801Z,95.00
2022-08-17T06:32:56.111Z,95.40
2022-08-17T06:35:33.526Z,96.10
2022-08-17T06:38:07.909Z,95.50
2022-08-17T06:40:55.197Z,95.60
2022-08-17T06:43:34.303Z,94.80
2022-08-17T06:46:11.367Z,93.90
2022-08-17T06:48:46.741Z,92.60
2022-08-17T06:51:22.062Z,92.60
2022-08-17T06:53:54.241Z,92.40
2022-08-17T06:56:53.024Z,92.80
2022-08-17T06:59:25.377Z,91.80
2022-08-17T07:01:56.360Z,92.40
2022-08-17T07:04:29.991Z,92.10
2022-08-17T07:07:01.283Z,91.50
2022-08-17T07:09:33.451Z,92.20
2022-08-17T07:12:09.897Z,91.80
2022-08-17T07:14:41.344Z,91.50
2022-08-17T07:17:13.193Z,91.10
2022-08-17T07:19:45.357Z,90.90
2022-08-17T07:22:21.700Z,91.10
2022-08-17T07:24:52.036Z,90.40
2022-08-17T07:27:23.206Z,89.00
2022-08-17T07:29:56.529Z,86.40
2022-08-17T07:32:31.438Z,86.20
2022-08-17T07:35:12.290Z,85.70
2022-08-17T07:37:45.643Z,84.20
2022-08-17T07:40:29.694Z,82.10
2022-08-17T07:43:23.711Z,81.90
2022-08-17T07:46:13.606Z,80.30
2022-08-17T07:48:46.857Z,80.10
2022-08-17T07:51:31.141Z,78.90
2022-08-17T07:54:13.894Z,80.40
2022-08-17T07:56:46.564Z,78.60
2022-08-17T07:59:17.997Z,78.50
2022-08-17T08:02:05.431Z,78.70
2022-08-17T08:04:59.048Z,79.30
2022-08-17T08:07:29.403Z,78.40
2022-08-17T08:10:10.580Z,76.80
2022-08-17T08:12:40.491Z,78.10
2022-08-17T08:15:18.622Z,77.60
2022-08-17T08:17:55.348Z,75.80
2022-08-17T08:20:47.700Z,77.20
2022-08-17T08:23:39.172Z,76.60
2022-08-17T08:26:18.888Z,75.70
2022-08-17T08:28:55.826Z,76.40
2022-08-17T08:31:31.427Z,77.10
2022-08-17T08:34:49.700Z,76.30
2022-08-17T08:37:16.479Z,76.90
2022-08-17T08:39:58.067Z,76.30
2022-08-17T08:42:35.642Z,75.80
2022-08-17T08:45:13.564Z,75.50
2022-08-17T08:47:58.131Z,75.20
2022-08-17T08:50:45.927Z,75.70
2022-08-17T08:53:23.454Z,75.60
2022-08-17T08:55:56.287Z,74.80
2022-08-17T08:58:41.000Z,74.10
2022-08-17T09:01:18.290Z,75.20
2022-08-17T09:04:23.258Z,73.60
2022-08-17T09:07:03.284Z,72.80
2022-08-17T09:09:43.258Z,71.40
2022-08-17T09:12:22.133Z,72.50
2022-08-17T09:14:55.362Z,72.30
2022-08-17T09:17:33.485Z,72.10
2022-08-17T09:20:06.775Z,71.80
2022-08-17T09:22:39.338Z,71.50
2022-08-17T09:25:13.284Z,71.20
2022-08-17T09:27:51.537Z,71.00
2022-08-17T09:30:20.554Z,70.80
2022-08-17T09:32:55.240Z,70.90
2022-08-17T09:35:36.683Z,70.50
2022-08-17T09:38:14.493Z,70.80
2022-08-17T09:40:51.428Z,70.90
2022-08-17T09:43:28.546Z,70.70
2022-08-17T09:46:01.804Z,70.10
2022-08-17T09:48:33.669Z,70.60
2022-08-17T09:51:07.036Z,69.80
2022-08-17T09:53:37.955Z,70.50
2022-08-17T09:56:23.894Z,70.70
2022-08-17T09:59:06.662Z,70.60
2022-08-17T10:01:39.695Z,70.20
2022-08-17T10:04:30.528Z,66.80
2022-08-17T10:07:05.517Z,66.60
2022-08-17T10:09:50.833Z,65.90
2022-08-17T10:12:31.198Z,68.60
2022-08-17T10:15:17.408Z,65.90
2022-08-17T10:17:59.355Z,66.60
2022-08-17T10:20:30.986Z,68.10
2022-08-17T10:23:20.187Z,67.30
2022-08-17T10:26:10.024Z,63.90
2022-08-17T10:28:44.472Z,66.30
2022-08-17T10:31:40.059Z,66.00
2022-08-17T10:34:36.195Z,64.30
2022-08-17T10:37:25.033Z,65.30
2022-08-17T10:40:02.374Z,65.50
2022-08-17T10:42:36.152Z,64.30
2022-08-17T10:45:21.444Z,65.10
2022-08-17T10:48:05.721Z,65.10
2022-08-17T10:50:49.370Z,65.20
2022-08-17T10:53:52.456Z,65.50
2022-08-17T10:56:23.162Z,66.60
2022-08-17T10:58:54.384Z,66.70
2022-08-17T11:02:02.174Z,65.80
2022-08-17T11:04:55.360Z,65.40
2022-08-17T11:07:43.721Z,66.60
2022-08-17T11:10:42.033Z,65.80
2022-08-17T11:13:17.560Z,65.50
2022-08-17T11:16:09.968Z,67.70
2022-08-17T11:19:08.471Z,67.70
2022-08-17T11:21:54.247Z,67.90
2022-08-17T11:24:30.471Z,65.60
2022-08-17T11:27:12.147Z,66.10
2022-08-17T11:29:53.526Z,68.20
2022-08-17T11:32:34.225Z,67.90
2022-08-17T11:35:34.627Z,68.10
2022-08-17T11:38:17.935Z,68.10
2022-08-17T11:41:14.755Z,67.40
2022-08-17T11:43:57.183Z,67.00
2022-08-17T11:46:56.286Z,66.90
2022-08-17T11:49:55.000Z,65.40
2022-08-17T11:52:44.540Z,66.20
2022-08-17T11:55:58.621Z,67.10
2022-08-17T11:58:42.678Z,65.20
2022-08-17T12:01:16.062Z,68.10
2022-08-17T12:03:54.209Z,70.10
2022-08-17T12:06:44.989Z,68.10
2022-08-17T12:09:18.237Z,69.40
2022-08-17T12:12:01.708Z,67.40
2022-08-17T12:15:08.985Z,66.00
2022-08-17T12:17:41.134Z,65.50
2022-08-17T12:20:14.877Z,68.40
2022-08-17T12:22:54.758Z,69.00
2022-08-17T12:25:32.973Z,69.10
2022-08-17T12:28:06.086Z,70.00
2022-08-17T12:30:37.321Z,70.50
2022-08-17T12:33:12.520Z,71.00
2022-08-17T12:35:40.503Z,70.90
2022-08-17T12:38:31.819Z,92.80
2022-08-17T12:40:59.690Z,96.40
2022-08-17T12:43:32.689Z,99.90
2022-08-17T12:46:14.982Z,99.90
2022-08-17T12:48:58.837Z,97.10
2022-08-17T12:51:29.315Z,99.60
2022-08-17T12:53:57.562Z,99.20
2022-08-17T12:56:25.559Z,99.90
2022-08-17T12:58:55.438Z,98.80
2022-08-17T13:01:26.981Z,99.50
2022-08-17T13:03:57.091Z,98.00
2022-08-17T13:06:30.011Z,96.70
2022-08-17T13:08:57.894Z,97.20
2022-08-17T13:11:26.245Z,97.80
2022-08-17T13:13:56.059Z,97.20
2022-08-17T13:16:27.333Z,98.80
2022-08-17T13:19:06.722Z,97.80
2022-08-17T13:21:36.361Z,95.20
2022-08-17T13:24:08.183Z,98.10
2022-08-17T13:26:42.878Z,97.50
2022-08-17T13:29:23.897Z,96.70
2022-08-17T13:32:02.758Z,94.30
2022-08-17T13:34:49.617Z,92.40
2022-08-17T13:37:30.059Z,95.10
2022-08-17T13:40:01.197Z,93.20
2022-08-17T13:42:50.374Z,90.80
2022-08-17T13:45:50.707Z,90.90
2022-08-17T13:48:29.173Z,90.20
2022-08-17T13:51:26.446Z,88.30
2022-08-17T13:54:07.559Z,81.90
2022-08-17T13:56:40.341Z,85.50
2022-08-17T13:59:12.244Z,85.50
2022-08-17T14:01:43.269Z,83.80
2022-08-17T14:04:15.671Z,79.70
2022-08-17T14:06:51.498Z,81.40
2022-08-17T14:09:24.702Z,77.60
2022-08-17T14:11:53.923Z,79.10
2022-08-17T14:14:23.041Z,76.90
2022-08-17T14:16:52.075Z,76.90
2022-08-17T14:19:22.078Z,78.20
2022-08-17T14:21:51.209Z,78.20
2022-08-17T14:24:24.230Z,78.30
2022-08-17T14:26:52.991Z,77.70
2022-08-17T14:29:21.227Z,76.90
2022-08-17T14:31:54.249Z,77.00
2022-08-17T14:34:24.628Z,77.20
2022-08-17T14:36:53.245Z,76.00
2022-08-17T14:39:21.473Z,76.80
2022-08-17T14:41:49.695Z,76.10
2022-08-17T14:44:18.139Z,76.20
2022-08-17T14:46:47.964Z,76.70
2022-08-17T14:49:16.039Z,76.10
2022-08-17T14:51:45.241Z,76.70
2022-08-17T14:54:34.228Z,76.50
2022-08-17T14:57:24.603Z,74.90
2022-08-17T14:59:53.219Z,76.00
2022-08-17T15:02:29.656Z,75.00
2022-08-17T15:05:00.335Z,74.40
2022-08-17T15:07:30.929Z,71.80
2022-08-17T15:10:00.396Z,71.50
2022-08-17T15:12:32.666Z,71.10
2022-08-17T15:15:01.447Z,70.90
2022-08-17T15:17:43.725Z,70.70
2022-08-17T15:20:15.279Z,70.20
2022-08-17T15:22:46.007Z,69.50
2022-08-17T15:25:15.303Z,71.30
2022-08-17T15:27:43.904Z,70.70
2022-08-17T15:30:13.003Z,68.80
2022-08-17T15:32:50.586Z,69.40
2022-08-17T15:35:27.548Z,69.60
2022-08-17T15:38:04.516Z,69.70
2022-08-17T15:40:36.695Z,70.00
2022-08-17T15:43:06.598Z,70.50
2022-08-17T15:45:35.190Z,71.40
2022-08-17T15:48:03.239Z,71.50
2022-08-17T15:50:31.136Z,71.20
2022-08-17T15:53:01.932Z,71.80
2022-08-17T15:55:31.339Z,73.40
2022-08-17T15:57:59.437Z,74.40
2022-08-17T16:00:28.441Z,73.20
2022-08-17T16:03:45.400Z,74.90
2022-08-17T16:05:45.231Z,73.90
2022-08-17T16:08:20.767Z,75.70
2022-08-17T16:10:49.751Z,75.30
2022-08-17T16:13:18.684Z,76.10
2022-08-17T16:15:56.609Z,76.40
2022-08-17T16:18:30.698Z,77.00
2022-08-17T16:21:18.830Z,77.20
2022-08-17T16:23:49.077Z,78.10
2022-08-17T16:26:17.972Z,77.60
2022-08-17T16:28:46.342Z,77.80
2022-08-17T16:31:14.301Z,77.90
2022-08-17T16:33:42.416Z,79.80
2022-08-17T16:36:31.043Z,78.40
2022-08-17T16:39:00.686Z,79.20
2022-08-17T16:41:46.652Z,79.70
2022-08-17T16:44:16.165Z,79.30
2022-08-17T16:46:45.714Z,79.60
2022-08-17T16:49:35.315Z,80.20
2022-08-17T16:52:03.837Z,80.20
2022-08-17T16:54:35.042Z,80.40
2022-08-17T16:57:04.838Z,80.00
2022-08-17T16:59:41.062Z,80.50
2022-08-17T17:02:15.740Z,81.30
2022-08-17T17:04:50.962Z,81.30
2022-08-17T17:07:49.755Z,80.70
2022-08-17T17:10:22.950Z,81.50
2022-08-17T17:13:02.807Z,81.30
2022-08-17T17:15:44.494Z,82.20
2022-08-17T17:18:15.298Z,83.00
2022-08-17T17:20:48.851Z,83.30
2022-08-17T17:23:29.041Z,83.00
2022-08-17T17:26:04.468Z,83.10
2022-08-17T17:28:46.154Z,83.50
2022-08-17T17:31:16.358Z,83.50
2022-08-17T17:33:48.198Z,83.70
2022-08-17T17:36:25.089Z,84.80
2022-08-17T17:38:55.062Z,85.70
2022-08-17T17:41:29.086Z,86.70
2022-08-17T17:44:03.036Z,85.90
2022-08-17T17:46:35.124Z,86.80
2022-08-17T17:49:02.984Z,87.90
2022-08-17T17:52:08.652Z,89.30
2022-08-17T17:54:39.826Z,88.30
2022-08-17T17:57:21.233Z,88.90
2022-08-17T18:00:00.099Z,88.20
2022-08-17T18:02:51.223Z,88.90
2022-08-17T18:05:35.315Z,87.80
2022-08-17T18:08:15.760Z,90.30
2022-08-17T18:10:50.906Z,90.20
2022-08-17T18:13:40.400Z,89.20
2022-08-17T18:16:13.660Z,90.20
2022-08-17T18:18:44.606Z,88.60
2022-08-17T18:21:16.720Z,88.30
2022-08-17T18:23:51.728Z,90.30
2022-08-17T18:26:37.683Z,90.50
2022-08-17T18:29:31.139Z,90.20
2022-08-17T18:32:24.327Z,90.10
2022-08-17T18:34:55.284Z,90.30
2022-08-17T18:37:44.814Z,90.40
2022-08-17T18:40:29.051Z,90.50
2022-08-17T18:43:02.861Z,90.30
2022-08-17T18:45:43.767Z,90.60
2022-08-17T18:48:22.027Z,90.90
2022-08-17T18:50:51.488Z,90.30
2022-08-17T18:53:33.568Z,90.70
2022-08-17T18:56:26.225Z,90.00
2022-08-17T18:59:12.744Z,90.10
2022-08-17T19:01:53.406Z,89.60
2022-08-17T19:04:34.835Z,89.30
2022-08-17T19:07:05.978Z,89.20
2022-08-17T19:09:39.259Z,88.80
2022-08-17T19:12:26.903Z,88.40
2022-08-17T19:14:57.562Z,88.90
2022-08-17T19:17:35.298Z,88.00
2022-08-17T19:20:11.314Z,88.30
2022-08-17T19:22:52.739Z,87.90
2022-08-17T19:25:25.633Z,87.30
2022-08-17T19:28:00.603Z,87.00
2022-08-17T19:30:30.970Z,89.20
2022-08-17T19:33:03.034Z,88.60
2022-08-17T19:35:41.989Z,88.10
2022-08-17T19:38:19.411Z,88.50
2022-08-17T19:41:01.865Z,89.40
2022-08-17T19:43:51.188Z,90.00
2022-08-17T19:46:26.098Z,90.10
2022-08-17T19:49:03.267Z,90.10
2022-08-17T19:51:40.925Z,90.20
2022-08-17T19:54:15.972Z,90.00
2022-08-17T19:56:54.397Z,90.70
2022-08-17T19:59:35.908Z,90.50
2022-08-17T20:02:15.435Z,90.90
2022-08-17T20:04:48.215Z,90.80
2022-08-17T20:07:19.642Z,90.40
2022-08-17T20:09:52.783Z,90.10
2022-08-17T20:12:23.747Z,90.40
2022-08-17T20:15:09.219Z,90.50
2022-08-17T20:17:39.710Z,90.20
2022-08-17T20:20:24.026Z,90.50
2022-08-17T20:22:58.305Z,90.30
2022-08-17T20:25:33.524Z,89.90
2022-08-17T20:28:07.323Z,90.20
2022-08-17T20:30:38.461Z,90.10
2022-08-17T20:33:09.162Z,90.30
2022-08-17T20:36:02.888Z,90.40
2022-08-17T20:38:42.344Z,90.90
2022-08-17T20:41:16.236Z,91.00
2022-08-17T20:43:52.190Z,91.30
2022-08-17T20:46:52.460Z,91.50
2022-08-17T20:49:27.022Z,92.60
2022-08-17T20:52:02.500Z,93.50
2022-08-17T20:54:49.707Z,93.60
2022-08-17T20:57:48.490Z,93.50
2022-08-17T21:00:42.974Z,94.00
2022-08-17T21:03:50.813Z,94.00
2022-08-17T21:06:24.505Z,94.20
2022-08-17T21:08:58.536Z,94.40
2022-08-17T21:12:04.957Z,94.50
2022-08-17T21:14:59.607Z,94.60
2022-08-17T21:17:47.311Z,94.70
2022-08-17T21:20:32.248Z,95.50
2022-08-17T21:23:28.887Z,95.80
2022-08-17T21:26:21.193Z,96.40
2022-08-17T21:29:31.286Z,96.60
2022-08-17T21:32:19.302Z,96.40
2022-08-17T21:35:28.147Z,99.50
2022-08-17T21:38:03.519Z,99.90
2022-08-17T21:40:33.579Z,99.90
2022-08-17T21:43:17.739Z,99.90
2022-08-17T21:46:00.569Z,99.10
2022-08-17T21:48:31.233Z,98.90
2022-08-17T21:51:04.549Z,99.20
2022-08-17T21:53:39.003Z,99.10
2022-08-17T21:56:07.831Z,98.90
2022-08-17T21:58:45.398Z,99.20
2022-08-17T22:01:25.396Z,99.90
2022-08-17T22:04:05.593Z,99.90
2022-08-17T22:06:37.954Z,99.90
2022-08-17T22:09:16.396Z,99.90
2022-08-17T22:12:07.086Z,99.90
2022-08-17T22:14:53.118Z,99.90
2022-08-17T22:17:24.155Z,99.90
2022-08-17T22:19:54.540Z,99.90
2022-08-17T22:22:35.354Z,99.90
2022-08-17T22:25:05.843Z,99.90
2022-08-17T22:27:54.270Z,99.90
2022-08-17T22:30:33.693Z,99.90
2022-08-17T22:33:22.341Z,99.90
2022-08-17T22:35:50.530Z,99.90
2022-08-17T22:38:31.359Z,99.90
2022-08-17T22:41:27.524Z,99.90
2022-08-17T22:43:57.387Z,99.90
2022-08-17T22:46:26.686Z,99.90
2022-08-17T22:48:58.641Z,99.90
2022-08-17T22:51:29.188Z,99.90
2022-08-17T22:54:18.622Z,99.90
2022-08-17T22:57:12.410Z,99.90
2022-08-17T22:59:47.501Z,99.90
2022-08-17T23:02:21.995Z,99.90
2022-08-17T23:04:52.593Z,99.90
2022-08-17T23:07:21.667Z,99.90
2022-08-17T23:09:49.748Z,99.90
2022-08-17T23:12:26.172Z,99.90
2022-08-17T23:15:00.528Z,99.90
2022-08-17T23:17:37.080Z,99.90
2022-08-17T23:20:08.158Z,99.90
2022-08-17T23:22:37.826Z,99.90
2022-08-17T23:25:25.676Z,99.90
2022-08-17T23:27:54.376Z,99.90
2022-08-17T23:30:25.476Z,99.90
2022-08-17T23:32:56.408Z,99.90
2022-08-17T23:35:40.461Z,99.90
2022-08-17T23:38:09.961Z,99.90
2022-08-17T23:40:39.538Z,99.90
2022-08-17T23:43:17.525Z,99.90
2022-08-17T23:45:53.717Z,99.90
2022-08-17T23:48:35.592Z,99.90
2022-08-17T23:51:09.020Z,99.90
2022-08-17T23:53:38.032Z,99.90
2022-08-17T23:56:10.079Z,99.90
2022-08-17T23:58:39.931Z,99.90
